createdAt,value
2022-10-24T00:00:17.895Z,13.97
2022-10-24T00:01:22.360Z,13.89
2022-10-24T00:02:24.603Z,13.86
2022-10-24T00:03:26.327Z,13.90
2022-10-24T00:04:27.879Z,13.88
2022-10-24T00:05:29.482Z,13.95
2022-10-24T00:06:33.833Z,13.97
2022-10-24T00:07:35.418Z,13.94
2022-10-24T00:08:37.848Z,13.97
2022-10-24T00:09:39.425Z,13.95
2022-10-24T00:10:43.886Z,13.88
2022-10-24T00:11:45.498Z,13.74
2022-10-24T00:12:47.380Z,13.56
2022-10-24T00:13:50.364Z,13.54
2022-10-24T00:14:51.989Z,13.59
2022-10-24T00:15:53.562Z,13.58
2022-10-24T00:16:55.272Z,13.55
2022-10-24T00:17:56.963Z,13.53
2022-10-24T00:18:58.646Z,13.52
2022-10-24T00:20:02.705Z,13.43
2022-10-24T00:21:07.571Z,13.30
2022-10-24T00:22:09.394Z,13.05
2022-10-24T00:23:13.618Z,13.02
2022-10-24T00:24:15.562Z,13.11
2022-10-24T00:25:17.272Z,13.21
2022-10-24T00:26:19.032Z,13.16
2022-10-24T00:27:20.649Z,13.10
2022-10-24T00:28:22.260Z,13.04
2022-10-24T00:29:24.746Z,13.08
2022-10-24T00:30:26.534Z,13.11
2022-10-24T00:31:28.550Z,13.18
2022-10-24T00:32:30.090Z,13.26
2022-10-24T00:33:31.732Z,13.36
2022-10-24T00:34:33.373Z,13.41
2022-10-24T00:35:34.980Z,13.46
2022-10-24T00:36:36.634Z,13.48
2022-10-24T00:37:38.286Z,13.49
2022-10-24T00:38:39.942Z,13.51
2022-10-24T00:39:41.503Z,13.56
2022-10-24T00:40:43.650Z,13.60
2022-10-24T00:41:45.442Z,13.67
2022-10-24T00:42:48.560Z,13.76
2022-10-24T00:43:50.534Z,13.77
2022-10-24T00:44:53.578Z,13.77
2022-10-24T00:45:56.809Z,13.79
2022-10-24T00:47:05.143Z,13.79
2022-10-24T00:48:35.562Z,13.84
2022-10-24T00:50:13.311Z,13.86
2022-10-24T00:51:24.775Z,13.86
2022-10-24T00:52:33.075Z,13.85
2022-10-24T00:53:40.748Z,13.85
2022-10-24T00:54:43.164Z,13.82
2022-10-24T00:55:48.346Z,13.81
2022-10-24T00:57:00.105Z,13.76
2022-10-24T00:58:02.733Z,13.70
2022-10-24T00:59:07.256Z,13.60
2022-10-24T01:00:20.991Z,13.43
2022-10-24T01:01:25.475Z,13.16
2022-10-24T01:02:27.343Z,12.99
2022-10-24T01:03:31.607Z,12.90
2022-10-24T01:04:33.289Z,12.80
2022-10-24T01:05:54.672Z,12.78
2022-10-24T01:07:11.351Z,12.81
2022-10-24T01:08:42.032Z,12.82
2022-10-24T01:10:06.657Z,12.81
2022-10-24T01:11:23.365Z,12.80
2022-10-24T01:12:38.937Z,12.90
2022-10-24T01:13:57.191Z,12.88
2022-10-24T01:15:22.956Z,12.86
2022-10-24T01:16:34.701Z,12.91
2022-10-24T01:17:48.684Z,13.05
2022-10-24T01:18:58.472Z,13.13
2022-10-24T01:20:26.724Z,13.18
2022-10-24T01:21:40.144Z,13.26
2022-10-24T01:23:19.123Z,13.28
2022-10-24T01:24:49.505Z,13.31
2022-10-24T01:25:50.995Z,13.33
2022-10-24T01:27:09.914Z,13.34
2022-10-24T01:28:16.755Z,13.34
2022-10-24T01:29:32.329Z,13.38
2022-10-24T01:30:43.356Z,13.36
2022-10-24T01:31:57.805Z,13.36
2022-10-24T01:33:15.929Z,13.38
2022-10-24T01:34:29.065Z,13.41
2022-10-24T01:35:52.067Z,13.39
2022-10-24T01:37:08.022Z,13.36
2022-10-24T01:38:14.770Z,13.36
2022-10-24T01:39:20.433Z,13.36
2022-10-24T01:40:55.169Z,13.35
2022-10-24T01:41:58.756Z,13.32
2022-10-24T01:43:08.248Z,13.21
2022-10-24T01:44:25.598Z,13.09
2022-10-24T01:45:34.689Z,13.11
2022-10-24T01:46:44.550Z,13.17
2022-10-24T01:47:53.717Z,13.10
2022-10-24T01:49:05.376Z,13.05
2022-10-24T01:50:11.913Z,13.03
2022-10-24T01:51:17.147Z,12.98
2022-10-24T01:52:20.159Z,12.94
2022-10-24T01:53:25.034Z,12.91
2022-10-24T01:54:28.257Z,12.81
2022-10-24T01:55:32.698Z,12.85
2022-10-24T01:56:34.689Z,12.86
2022-10-24T01:57:36.305Z,12.80
2022-10-24T01:58:37.950Z,12.78
2022-10-24T01:59:43.405Z,12.77
2022-10-24T02:00:47.267Z,12.75
2022-10-24T02:01:49.149Z,12.64
2022-10-24T02:03:04.105Z,12.52
2022-10-24T02:04:11.077Z,12.53
2022-10-24T02:05:17.182Z,12.53
2022-10-24T02:06:35.231Z,12.54
2022-10-24T02:07:40.977Z,12.45
2022-10-24T02:08:48.880Z,12.41
2022-10-24T02:10:00.578Z,12.43
2022-10-24T02:11:06.655Z,12.41
2022-10-24T02:12:10.385Z,12.39
2022-10-24T02:13:19.264Z,12.42
2022-10-24T02:14:28.205Z,12.47
2022-10-24T02:15:33.884Z,12.53
2022-10-24T02:16:35.713Z,12.53
2022-10-24T02:17:39.559Z,12.53
2022-10-24T02:18:41.609Z,12.55
2022-10-24T02:19:44.473Z,12.59
2022-10-24T02:20:54.840Z,12.64
2022-10-24T02:22:02.189Z,12.67
2022-10-24T02:23:13.277Z,12.67
2022-10-24T02:24:22.161Z,12.70
2022-10-24T02:25:33.700Z,12.72
2022-10-24T02:26:41.799Z,12.77
2022-10-24T02:27:55.851Z,12.65
2022-10-24T02:29:01.803Z,12.55
2022-10-24T02:30:13.675Z,12.50
2022-10-24T02:31:21.851Z,12.59
2022-10-24T02:32:29.736Z,12.61
2022-10-24T02:33:34.248Z,12.68
2022-10-24T02:34:38.579Z,12.72
2022-10-24T02:35:41.618Z,12.73
2022-10-24T02:36:44.951Z,12.75
2022-10-24T02:37:51.725Z,12.84
2022-10-24T02:38:55.338Z,12.86
2022-10-24T02:39:59.545Z,12.90
2022-10-24T02:41:04.990Z,12.91
2022-10-24T02:42:08.707Z,12.96
2022-10-24T02:43:12.813Z,13.00
2022-10-24T02:44:16.634Z,13.00
2022-10-24T02:45:21.142Z,13.00
2022-10-24T02:46:25.321Z,13.03
2022-10-24T02:47:28.597Z,13.01
2022-10-24T02:48:34.825Z,13.05
2022-10-24T02:49:36.603Z,13.06
2022-10-24T02:50:41.024Z,13.08
2022-10-24T02:51:46.060Z,13.12
2022-10-24T02:52:48.268Z,13.15
2022-10-24T02:53:50.852Z,13.19
2022-10-24T02:54:53.659Z,13.21
2022-10-24T02:55:55.402Z,13.19
2022-10-24T02:57:01.431Z,13.13
2022-10-24T02:58:03.208Z,13.05
2022-10-24T02:59:04.870Z,13.05
2022-10-24T03:00:08.012Z,13.00
2022-10-24T03:01:09.917Z,13.00
2022-10-24T03:02:11.731Z,12.99
2022-10-24T03:03:13.765Z,12.99
2022-10-24T03:04:15.624Z,12.92
2022-10-24T03:05:17.312Z,12.89
2022-10-24T03:06:18.960Z,12.87
2022-10-24T03:07:20.744Z,12.89
2022-10-24T03:08:22.444Z,12.87
2022-10-24T03:09:24.111Z,12.86
2022-10-24T03:10:25.775Z,12.87
2022-10-24T03:11:27.587Z,12.90
2022-10-24T03:12:29.192Z,12.88
2022-10-24T03:13:30.842Z,12.87
2022-10-24T03:14:32.856Z,12.80
2022-10-24T03:15:34.580Z,12.73
2022-10-24T03:16:36.312Z,12.64
2022-10-24T03:17:37.997Z,12.71
2022-10-24T03:18:39.778Z,12.75
2022-10-24T03:19:41.413Z,12.76
2022-10-24T03:20:43.067Z,12.79
2022-10-24T03:21:44.762Z,12.76
2022-10-24T03:22:46.393Z,12.74
2022-10-24T03:23:48.181Z,12.74
2022-10-24T03:24:56.465Z,12.74
2022-10-24T03:25:59.317Z,12.75
2022-10-24T03:27:00.972Z,12.76
2022-10-24T03:28:02.680Z,12.75
2022-10-24T03:29:04.845Z,12.76
2022-10-24T03:30:07.355Z,12.67
2022-10-24T03:31:09.155Z,12.57
2022-10-24T03:32:13.177Z,12.50
2022-10-24T03:33:19.019Z,12.51
2022-10-24T03:34:20.838Z,12.47
2022-10-24T03:35:22.616Z,12.46
2022-10-24T03:36:24.520Z,12.46
2022-10-24T03:37:26.541Z,12.52
2022-10-24T03:38:28.289Z,12.54
2022-10-24T03:39:32.220Z,12.46
2022-10-24T03:40:37.430Z,12.22
2022-10-24T03:41:39.060Z,12.04
2022-10-24T03:42:40.740Z,11.93
2022-10-24T03:43:42.513Z,11.83
2022-10-24T03:44:44.227Z,11.65
2022-10-24T03:45:45.989Z,11.62
2022-10-24T03:46:47.750Z,11.52
2022-10-24T03:47:49.448Z,11.52
2022-10-24T03:48:51.110Z,11.48
2022-10-24T03:49:52.839Z,11.45
2022-10-24T03:50:56.009Z,11.40
2022-10-24T03:51:57.743Z,11.36
2022-10-24T03:53:00.016Z,11.37
2022-10-24T03:54:01.605Z,11.38
2022-10-24T03:55:03.417Z,11.37
2022-10-24T03:56:05.254Z,11.40
2022-10-24T03:57:09.969Z,11.44
2022-10-24T03:58:11.601Z,11.44
2022-10-24T03:59:13.600Z,11.40
2022-10-24T04:00:15.650Z,11.44
2022-10-24T04:01:18.643Z,11.42
2022-10-24T04:02:20.581Z,11.42
2022-10-24T04:03:22.167Z,11.39
2022-10-24T04:04:23.844Z,11.46
2022-10-24T04:05:25.478Z,11.54
2022-10-24T04:06:27.429Z,11.60
2022-10-24T04:07:31.230Z,11.65
2022-10-24T04:08:32.830Z,11.74
2022-10-24T04:09:34.505Z,11.81
2022-10-24T04:10:36.327Z,11.81
2022-10-24T04:11:40.725Z,11.79
2022-10-24T04:12:42.436Z,11.82
2022-10-24T04:13:44.274Z,11.90
2022-10-24T04:14:48.345Z,11.93
2022-10-24T04:15:50.059Z,11.88
2022-10-24T04:16:51.731Z,11.87
2022-10-24T04:17:53.419Z,11.90
2022-10-24T04:18:55.014Z,11.93
2022-10-24T04:19:56.587Z,12.02
2022-10-24T04:20:58.277Z,12.09
2022-10-24T04:22:00.296Z,12.13
2022-10-24T04:23:04.410Z,12.20
2022-10-24T04:24:06.831Z,12.24
2022-10-24T04:25:08.531Z,12.25
2022-10-24T04:26:12.976Z,12.28
2022-10-24T04:27:14.575Z,12.29
2022-10-24T04:28:16.353Z,12.25
2022-10-24T04:29:17.989Z,12.18
2022-10-24T04:30:19.683Z,12.19
2022-10-24T04:31:23.518Z,12.16
2022-10-24T04:32:25.580Z,12.15
2022-10-24T04:33:27.164Z,12.22
2022-10-24T04:34:28.729Z,12.17
2022-10-24T04:35:30.609Z,12.13
2022-10-24T04:36:43.051Z,12.11
2022-10-24T04:37:44.636Z,12.08
2022-10-24T04:38:46.273Z,12.10
2022-10-24T04:39:48.142Z,12.08
2022-10-24T04:40:54.293Z,12.04
2022-10-24T04:41:56.039Z,12.04
2022-10-24T04:42:57.665Z,12.05
2022-10-24T04:43:59.506Z,12.09
2022-10-24T04:45:01.106Z,12.10
2022-10-24T04:46:02.744Z,12.07
2022-10-24T04:47:04.444Z,12.02
2022-10-24T04:48:06.448Z,12.03
2022-10-24T04:49:08.091Z,12.06
2022-10-24T04:50:10.179Z,12.05
2022-10-24T04:51:12.068Z,12.04
2022-10-24T04:52:13.798Z,12.07
2022-10-24T04:53:17.333Z,12.03
2022-10-24T04:54:18.985Z,12.07
2022-10-24T04:55:20.605Z,12.04
2022-10-24T04:56:22.928Z,12.05
2022-10-24T04:57:26.926Z,12.03
2022-10-24T04:58:28.636Z,12.04
2022-10-24T04:59:30.234Z,12.06
2022-10-24T05:00:31.948Z,12.07
2022-10-24T05:01:33.702Z,12.14
2022-10-24T05:02:35.520Z,12.16
2022-10-24T05:03:37.252Z,12.21
2022-10-24T05:04:38.954Z,12.21
2022-10-24T05:05:40.902Z,12.18
2022-10-24T05:06:45.022Z,12.22
2022-10-24T05:07:47.494Z,12.25
2022-10-24T05:08:49.272Z,12.28
2022-10-24T05:09:50.903Z,12.29
2022-10-24T05:10:52.997Z,12.22
2022-10-24T05:11:55.846Z,12.18
2022-10-24T05:12:57.651Z,12.19
2022-10-24T05:13:59.936Z,12.18
2022-10-24T05:15:01.516Z,12.20
2022-10-24T05:16:03.540Z,12.22
2022-10-24T05:17:05.081Z,12.22
2022-10-24T05:18:06.830Z,12.25
2022-10-24T05:19:08.507Z,12.24
2022-10-24T05:20:10.636Z,12.23
2022-10-24T05:21:12.605Z,12.23
2022-10-24T05:22:14.144Z,12.25
2022-10-24T05:23:15.873Z,12.23
2022-10-24T05:24:17.507Z,12.25
2022-10-24T05:25:19.439Z,12.27
2022-10-24T05:26:20.964Z,12.28
2022-10-24T05:27:24.852Z,12.23
2022-10-24T05:28:26.419Z,12.24
2022-10-24T05:29:28.001Z,12.27
2022-10-24T05:30:29.562Z,12.28
2022-10-24T05:32:33.811Z,12.32
2022-10-24T05:33:37.553Z,12.37
2022-10-24T05:34:39.381Z,12.36
2022-10-24T05:35:41.860Z,12.29
2022-10-24T05:36:43.703Z,12.29
2022-10-24T05:37:45.438Z,12.36
2022-10-24T05:38:47.065Z,12.32
2022-10-24T05:39:48.655Z,12.23
2022-10-24T05:40:51.540Z,12.07
2022-10-24T05:41:55.298Z,11.95
2022-10-24T05:42:57.210Z,11.90
2022-10-24T05:43:58.940Z,11.95
2022-10-24T05:45:00.492Z,11.87
2022-10-24T05:46:02.118Z,11.88
2022-10-24T05:47:03.756Z,11.82
2022-10-24T05:48:06.093Z,11.83
2022-10-24T05:49:07.794Z,11.81
2022-10-24T05:50:10.562Z,11.80
2022-10-24T05:51:12.157Z,11.69
2022-10-24T05:52:13.704Z,11.64
2022-10-24T05:53:15.396Z,11.77
2022-10-24T05:54:17.306Z,11.80
2022-10-24T05:55:19.131Z,11.87
2022-10-24T05:56:20.716Z,11.80
2022-10-24T05:57:25.397Z,11.78
2022-10-24T05:58:27.631Z,11.69
2022-10-24T05:59:29.302Z,11.70
2022-10-24T06:00:33.893Z,11.62
2022-10-24T06:01:35.658Z,11.68
2022-10-24T06:02:37.328Z,11.74
2022-10-24T06:03:39.625Z,11.87
2022-10-24T06:04:41.185Z,11.96
2022-10-24T06:05:43.101Z,12.10
2022-10-24T06:06:45.422Z,12.23
2022-10-24T06:07:47.753Z,12.37
2022-10-24T06:08:50.191Z,12.42
2022-10-24T06:09:51.778Z,12.50
2022-10-24T06:10:53.701Z,12.55
2022-10-24T06:11:55.311Z,12.36
2022-10-24T06:12:56.884Z,12.47
2022-10-24T06:13:58.582Z,12.60
2022-10-24T06:15:00.883Z,12.76
2022-10-24T06:16:05.782Z,12.87
2022-10-24T06:17:16.644Z,12.94
2022-10-24T06:18:18.275Z,13.05
2022-10-24T06:19:21.813Z,13.13
2022-10-24T06:20:23.499Z,13.21
2022-10-24T06:21:25.153Z,13.09
2022-10-24T06:22:29.657Z,13.15
2022-10-24T06:23:31.905Z,13.18
2022-10-24T06:24:38.207Z,13.23
2022-10-24T06:25:43.229Z,13.35
2022-10-24T06:26:44.941Z,13.39
2022-10-24T06:27:46.513Z,13.32
2022-10-24T06:28:48.093Z,13.34
2022-10-24T06:29:49.694Z,13.33
2022-10-24T06:30:52.536Z,13.22
2022-10-24T06:31:54.197Z,13.31
2022-10-24T06:32:55.747Z,13.48
2022-10-24T06:33:57.577Z,13.64
2022-10-24T06:34:59.180Z,13.80
2022-10-24T06:36:05.630Z,13.93
2022-10-24T06:37:07.192Z,14.07
2022-10-24T06:38:08.935Z,14.17
2022-10-24T06:39:11.645Z,14.21
2022-10-24T06:40:13.309Z,14.32
2022-10-24T06:41:17.265Z,14.45
2022-10-24T06:42:18.885Z,14.48
2022-10-24T06:43:20.821Z,14.57
2022-10-24T06:44:22.851Z,14.60
2022-10-24T06:45:24.773Z,14.62
2022-10-24T06:46:26.325Z,14.52
2022-10-24T06:47:28.002Z,14.41
2022-10-24T06:48:29.524Z,14.36
2022-10-24T06:49:31.072Z,14.24
2022-10-24T06:50:32.622Z,14.20
2022-10-24T06:51:34.585Z,14.21
2022-10-24T06:52:37.355Z,14.23
2022-10-24T06:53:38.907Z,14.28
2022-10-24T06:54:43.619Z,14.39
2022-10-24T06:55:45.167Z,14.35
2022-10-24T06:56:46.767Z,14.17
2022-10-24T06:57:48.376Z,14.14
2022-10-24T06:58:49.942Z,14.17
2022-10-24T06:59:51.482Z,14.12
2022-10-24T07:00:53.124Z,14.20
2022-10-24T07:01:54.878Z,14.34
2022-10-24T07:02:56.471Z,14.54
2022-10-24T07:03:58.042Z,14.69
2022-10-24T07:04:59.611Z,14.85
2022-10-24T07:06:10.375Z,14.92
2022-10-24T07:07:16.778Z,15.13
2022-10-24T07:08:18.450Z,15.31
2022-10-24T07:09:20.396Z,15.11
2022-10-24T07:10:22.097Z,15.20
2022-10-24T07:11:24.707Z,15.33
2022-10-24T07:12:26.692Z,15.47
2022-10-24T07:13:29.696Z,15.69
2022-10-24T07:14:31.261Z,15.81
2022-10-24T07:15:32.999Z,15.80
2022-10-24T07:16:34.689Z,15.74
2022-10-24T07:17:43.844Z,15.77
2022-10-24T07:18:45.422Z,15.78
2022-10-24T07:19:55.152Z,15.62
2022-10-24T07:21:13.025Z,15.39
2022-10-24T07:22:14.637Z,15.39
2022-10-24T07:23:16.262Z,15.58
2022-10-24T07:24:18.211Z,15.72
2022-10-24T07:25:20.989Z,15.88
2022-10-24T07:26:24.975Z,16.09
2022-10-24T07:27:26.736Z,16.21
2022-10-24T07:28:28.581Z,16.32
2022-10-24T07:29:30.225Z,16.49
2022-10-24T07:30:31.886Z,16.61
2022-10-24T07:31:35.914Z,16.65
2022-10-24T07:32:37.472Z,16.73
2022-10-24T07:33:40.294Z,16.52
2022-10-24T07:34:41.908Z,16.41
2022-10-24T07:35:43.483Z,16.44
2022-10-24T07:36:45.077Z,16.49
2022-10-24T07:37:46.924Z,16.15
2022-10-24T07:38:50.163Z,16.24
2022-10-24T07:39:51.740Z,16.40
2022-10-24T07:40:53.415Z,16.40
2022-10-24T07:41:55.037Z,16.46
2022-10-24T07:42:56.594Z,16.62
2022-10-24T07:44:02.542Z,16.69
2022-10-24T07:45:04.488Z,16.69
2022-10-24T07:46:07.704Z,16.78
2022-10-24T07:47:10.134Z,16.91
2022-10-24T07:48:11.997Z,16.69
2022-10-24T07:49:13.569Z,16.58
2022-10-24T07:50:17.311Z,16.52
2022-10-24T07:51:19.616Z,16.66
2022-10-24T07:52:21.181Z,16.83
2022-10-24T07:53:22.677Z,16.88
2022-10-24T07:54:25.730Z,16.47
2022-10-24T07:55:27.425Z,16.27
2022-10-24T07:56:29.033Z,16.19
2022-10-24T07:57:30.618Z,16.16
2022-10-24T07:58:32.179Z,16.34
2022-10-24T07:59:42.603Z,16.56
2022-10-24T08:00:45.637Z,16.69
2022-10-24T08:01:47.513Z,16.83
2022-10-24T08:03:56.805Z,17.08
2022-10-24T08:04:58.613Z,17.28
2022-10-24T08:06:00.545Z,17.42
2022-10-24T08:07:02.100Z,17.59
2022-10-24T08:08:19.991Z,17.65
2022-10-24T08:09:26.615Z,17.64
2022-10-24T08:10:28.235Z,17.74
2022-10-24T08:11:31.409Z,17.88
2022-10-24T08:12:37.945Z,18.10
2022-10-24T08:13:41.683Z,18.34
2022-10-24T08:14:44.327Z,18.46
2022-10-24T08:15:45.860Z,18.54
2022-10-24T08:16:48.748Z,18.51
2022-10-24T08:17:50.293Z,18.44
2022-10-24T08:18:53.721Z,18.43
2022-10-24T08:19:55.316Z,18.38
2022-10-24T08:21:01.013Z,18.30
2022-10-24T08:22:03.671Z,18.09
2022-10-24T08:23:05.288Z,17.92
2022-10-24T08:24:07.197Z,17.87
2022-10-24T08:25:10.184Z,17.91
2022-10-24T08:26:17.674Z,18.02
2022-10-24T08:27:19.266Z,18.03
2022-10-24T08:28:21.008Z,18.15
2022-10-24T08:29:23.501Z,18.29
2022-10-24T08:30:25.083Z,18.48
2022-10-24T08:31:26.824Z,18.57
2022-10-24T08:32:28.411Z,18.54
2022-10-24T08:33:30.724Z,18.67
2022-10-24T08:34:32.637Z,18.70
2022-10-24T08:35:34.212Z,18.64
2022-10-24T08:36:36.305Z,18.63
2022-10-24T08:38:44.726Z,18.14
2022-10-24T08:39:46.291Z,18.09
2022-10-24T08:40:48.979Z,18.09
2022-10-24T08:41:59.402Z,18.07
2022-10-24T08:43:02.015Z,18.01
2022-10-24T08:44:14.419Z,18.05
2022-10-24T08:45:57.527Z,18.10
2022-10-24T08:47:29.151Z,18.01
2022-10-24T08:48:42.136Z,17.99
2022-10-24T08:49:50.481Z,18.05
2022-10-24T08:50:59.104Z,18.24
2022-10-24T08:52:04.661Z,18.36
2022-10-24T08:53:12.646Z,18.42
2022-10-24T08:54:19.553Z,18.43
2022-10-24T08:55:48.678Z,18.46
2022-10-24T08:56:55.337Z,18.67
2022-10-24T08:58:00.941Z,18.86
2022-10-24T08:59:04.475Z,18.99
2022-10-24T09:00:27.796Z,19.22
2022-10-24T09:01:33.474Z,19.31
2022-10-24T09:02:39.808Z,19.36
2022-10-24T09:03:57.557Z,19.29
2022-10-24T09:05:17.386Z,19.11
2022-10-24T09:06:22.313Z,19.10
2022-10-24T09:07:27.932Z,19.12
2022-10-24T09:08:38.546Z,19.07
2022-10-24T09:09:44.417Z,19.12
2022-10-24T09:10:58.104Z,19.18
2022-10-24T09:12:01.296Z,19.25
2022-10-24T09:13:02.961Z,19.29
2022-10-24T09:14:13.432Z,19.34
2022-10-24T09:15:26.093Z,19.36
2022-10-24T09:16:27.797Z,19.46
2022-10-24T09:17:32.706Z,19.52
2022-10-24T09:18:40.276Z,19.53
2022-10-24T09:19:49.948Z,19.47
2022-10-24T09:20:54.081Z,19.51
2022-10-24T09:21:57.659Z,19.61
2022-10-24T09:23:03.211Z,19.61
2022-10-24T09:24:05.333Z,19.79
2022-10-24T09:25:16.150Z,19.95
2022-10-24T09:26:33.100Z,19.89
2022-10-24T09:27:37.908Z,19.94
2022-10-24T09:28:39.832Z,20.00
2022-10-24T09:29:41.954Z,20.05
2022-10-24T09:30:43.957Z,20.12
2022-10-24T09:31:49.393Z,20.23
2022-10-24T09:32:52.789Z,20.30
2022-10-24T09:33:56.706Z,20.33
2022-10-24T09:35:05.764Z,20.23
2022-10-24T09:36:12.561Z,20.12
2022-10-24T09:37:44.250Z,20.03
2022-10-24T09:38:51.554Z,20.00
2022-10-24T09:40:06.730Z,20.02
2022-10-24T09:41:15.865Z,20.09
2022-10-24T09:42:23.851Z,20.17
2022-10-24T09:43:39.030Z,20.18
2022-10-24T09:44:44.087Z,20.22
2022-10-24T09:45:51.566Z,20.36
2022-10-24T09:46:53.351Z,20.51
2022-10-24T09:48:00.321Z,20.48
2022-10-24T09:49:19.738Z,20.46
2022-10-24T09:50:22.527Z,20.51
2022-10-24T09:51:29.198Z,20.60
2022-10-24T09:52:35.655Z,20.69
2022-10-24T09:53:41.000Z,20.68
2022-10-24T09:54:45.314Z,20.78
2022-10-24T09:55:48.365Z,20.95
2022-10-24T09:57:12.625Z,20.96
2022-10-24T09:58:20.616Z,20.86
2022-10-24T09:59:47.974Z,20.83
2022-10-24T10:01:22.819Z,20.83
2022-10-24T10:02:34.608Z,20.92
2022-10-24T10:03:36.353Z,21.00
2022-10-24T10:04:38.902Z,21.00
2022-10-24T10:05:48.244Z,21.00
2022-10-24T10:06:50.672Z,21.09
2022-10-24T10:07:52.941Z,21.11
2022-10-24T10:08:56.465Z,21.22
2022-10-24T10:10:19.997Z,21.31
2022-10-24T10:11:37.627Z,21.36
2022-10-24T10:12:42.439Z,21.35
2022-10-24T10:13:56.195Z,21.37
2022-10-24T10:14:58.070Z,21.43
2022-10-24T10:16:04.202Z,21.47
2022-10-24T10:17:07.499Z,21.50
2022-10-24T10:18:55.582Z,21.57
2022-10-24T10:19:58.336Z,21.68
2022-10-24T10:21:10.024Z,21.72
2022-10-24T10:22:25.584Z,21.63
2022-10-24T10:23:29.221Z,21.62
2022-10-24T10:24:33.721Z,21.64
2022-10-24T10:25:35.411Z,21.58
2022-10-24T10:26:45.591Z,21.63
2022-10-24T10:27:51.254Z,21.70
2022-10-24T10:29:00.131Z,21.70
2022-10-24T10:30:18.576Z,21.72
2022-10-24T10:31:24.865Z,21.72
2022-10-24T10:32:38.076Z,21.89
2022-10-24T10:33:52.491Z,21.97
2022-10-24T10:35:07.929Z,21.91
2022-10-24T10:36:28.054Z,21.90
2022-10-24T10:37:31.908Z,21.87
2022-10-24T10:38:52.275Z,21.89
2022-10-24T10:40:28.779Z,21.92
2022-10-24T10:41:37.390Z,22.06
2022-10-24T10:42:41.693Z,22.14
2022-10-24T10:43:57.598Z,22.15
2022-10-24T10:45:16.960Z,22.08
2022-10-24T10:47:10.844Z,22.12
2022-10-24T10:48:21.663Z,22.18
2022-10-24T10:49:26.002Z,22.21
2022-10-24T10:50:42.443Z,22.30
2022-10-24T10:52:06.652Z,22.38
2022-10-24T10:53:30.159Z,22.47
2022-10-24T10:54:41.636Z,22.45
2022-10-24T10:55:59.117Z,22.42
2022-10-24T10:57:07.750Z,22.39
2022-10-24T10:58:18.157Z,22.50
2022-10-24T10:59:57.455Z,22.52
2022-10-24T11:01:26.401Z,22.61
2022-10-24T11:02:50.610Z,22.64
2022-10-24T11:04:05.248Z,22.74
2022-10-24T11:05:24.511Z,22.78
2022-10-24T11:06:49.291Z,22.70
2022-10-24T11:08:17.178Z,22.85
2022-10-24T11:09:29.627Z,22.92
2022-10-24T11:10:42.064Z,22.92
2022-10-24T11:11:52.096Z,22.93
2022-10-24T11:12:55.872Z,22.97
2022-10-24T11:14:11.292Z,23.01
2022-10-24T11:15:29.727Z,23.06
2022-10-24T11:16:32.393Z,23.09
2022-10-24T11:17:50.962Z,23.09
2022-10-24T11:18:57.087Z,23.11
2022-10-24T11:20:18.211Z,23.08
2022-10-24T11:21:24.077Z,23.10
2022-10-24T11:22:31.164Z,23.17
2022-10-24T11:23:51.629Z,23.21
2022-10-24T11:25:02.597Z,23.18
2022-10-24T11:26:09.508Z,23.19
2022-10-24T11:28:55.750Z,23.29
2022-10-24T11:30:06.787Z,23.28
2022-10-24T11:31:17.273Z,23.27
2022-10-24T11:32:54.929Z,23.19
2022-10-24T11:34:16.256Z,23.11
2022-10-24T11:35:31.121Z,23.04
2022-10-24T11:36:53.407Z,23.01
2022-10-24T11:38:05.418Z,23.00
2022-10-24T11:39:20.203Z,23.02
2022-10-24T11:40:25.008Z,23.11
2022-10-24T11:41:58.430Z,23.23
2022-10-24T11:43:33.259Z,23.32
2022-10-24T11:44:50.554Z,23.35
2022-10-24T11:46:02.553Z,23.31
2022-10-24T11:47:19.495Z,23.30
2022-10-24T11:48:53.294Z,23.33
2022-10-24T11:49:55.074Z,23.33
2022-10-24T11:51:01.070Z,23.35
2022-10-24T11:52:19.039Z,23.36
2022-10-24T11:53:47.301Z,23.41
2022-10-24T11:54:59.294Z,23.42
2022-10-24T11:56:37.812Z,23.42
2022-10-24T11:57:43.566Z,23.43
2022-10-24T11:59:26.699Z,23.47
2022-10-24T12:00:37.870Z,23.62
2022-10-24T12:01:57.347Z,23.65
2022-10-24T12:03:26.229Z,23.63
2022-10-24T12:05:09.367Z,23.59
2022-10-24T12:06:29.827Z,23.65
2022-10-24T12:07:52.922Z,23.65
2022-10-24T12:09:09.312Z,23.68
2022-10-24T12:10:14.009Z,23.78
2022-10-24T12:11:41.989Z,23.84
2022-10-24T12:12:49.284Z,23.91
2022-10-24T12:14:28.608Z,23.95
2022-10-24T12:15:56.962Z,23.98
2022-10-24T12:17:18.887Z,24.07
2022-10-24T12:18:30.412Z,24.09
2022-10-24T12:19:32.508Z,24.10
2022-10-24T12:20:35.332Z,24.16
2022-10-24T12:21:50.146Z,24.20
2022-10-24T12:22:53.938Z,24.26
2022-10-24T12:23:59.050Z,24.32
2022-10-24T12:25:10.931Z,24.41
2022-10-24T12:26:24.232Z,24.47
2022-10-24T12:27:39.690Z,24.48
2022-10-24T12:28:43.490Z,24.48
2022-10-24T12:29:45.070Z,24.52
2022-10-24T12:31:22.278Z,24.52
2022-10-24T12:32:42.383Z,24.55
2022-10-24T12:34:04.959Z,24.57
2022-10-24T12:35:49.441Z,24.52
2022-10-24T12:37:18.680Z,24.59
2022-10-24T12:38:29.488Z,24.63
2022-10-24T12:39:37.490Z,24.61
2022-10-24T12:40:45.383Z,24.65
2022-10-24T12:41:47.194Z,24.65
2022-10-24T12:42:51.999Z,24.67
2022-10-24T12:44:37.103Z,24.67
2022-10-24T12:45:38.918Z,24.63
2022-10-24T12:46:40.404Z,24.59
2022-10-24T12:48:02.770Z,24.59
2022-10-24T12:49:10.447Z,24.62
2022-10-24T12:50:23.726Z,24.66
2022-10-24T12:51:38.123Z,24.65
2022-10-24T12:52:45.888Z,24.71
2022-10-24T12:54:06.026Z,24.76
2022-10-24T12:55:39.475Z,24.73
2022-10-24T12:56:51.242Z,24.75
2022-10-24T12:57:53.153Z,24.72
2022-10-24T12:59:16.103Z,24.74
2022-10-24T13:00:30.186Z,24.75
2022-10-24T13:01:36.626Z,24.77
2022-10-24T13:02:47.785Z,24.76
2022-10-24T13:03:53.485Z,24.78
2022-10-24T13:05:33.631Z,24.87
2022-10-24T13:06:50.257Z,24.91
2022-10-24T13:08:13.491Z,24.88
2022-10-24T13:09:30.861Z,24.91
2022-10-24T13:11:03.147Z,24.96
2022-10-24T13:12:28.526Z,24.93
2022-10-24T13:13:39.406Z,24.89
2022-10-24T13:14:43.471Z,24.88
2022-10-24T13:16:12.905Z,24.91
2022-10-24T13:17:40.248Z,24.94
2022-10-24T13:19:03.931Z,24.90
2022-10-24T13:20:18.383Z,24.97
2022-10-24T13:21:51.956Z,25.01
2022-10-24T13:23:12.320Z,25.02
2022-10-24T13:24:16.719Z,25.02
2022-10-24T13:25:36.667Z,25.05
2022-10-24T13:26:45.575Z,25.05
2022-10-24T13:28:25.294Z,25.04
2022-10-24T13:29:30.978Z,25.04
2022-10-24T13:30:40.034Z,25.08
2022-10-24T13:31:55.002Z,25.12
2022-10-24T13:33:33.984Z,25.12
2022-10-24T13:34:48.985Z,25.11
2022-10-24T13:35:51.555Z,25.12
2022-10-24T13:37:24.449Z,25.09
2022-10-24T13:38:26.564Z,25.08
2022-10-24T13:39:41.325Z,25.08
2022-10-24T13:40:46.118Z,25.10
2022-10-24T13:41:58.654Z,25.16
2022-10-24T13:43:07.550Z,25.13
2022-10-24T13:44:12.197Z,25.20
2022-10-24T13:45:28.846Z,25.29
2022-10-24T13:46:54.360Z,25.28
2022-10-24T13:48:12.101Z,25.27
2022-10-24T13:49:27.731Z,25.27
2022-10-24T13:50:33.944Z,25.20
2022-10-24T13:51:45.906Z,25.22
2022-10-24T13:53:00.542Z,25.19
2022-10-24T13:54:21.169Z,25.16
2022-10-24T13:55:33.458Z,25.13
2022-10-24T13:56:41.421Z,25.12
2022-10-24T13:57:55.571Z,25.13
2022-10-24T13:58:57.206Z,25.15
2022-10-24T14:00:02.587Z,25.12
2022-10-24T14:01:37.670Z,25.10
2022-10-24T14:02:45.874Z,25.03
2022-10-24T14:03:49.243Z,25.08
2022-10-24T14:04:54.734Z,25.05
2022-10-24T14:06:03.616Z,25.04
2022-10-24T14:07:09.560Z,25.03
2022-10-24T14:08:28.547Z,25.08
2022-10-24T14:09:30.930Z,25.05
2022-10-24T14:10:32.877Z,25.09
2022-10-24T14:11:39.607Z,25.14
2022-10-24T14:12:41.775Z,25.12
2022-10-24T14:13:48.896Z,25.11
2022-10-24T14:14:52.849Z,25.14
2022-10-24T14:16:04.281Z,25.20
2022-10-24T14:17:26.390Z,25.23
2022-10-24T14:18:28.241Z,25.22
2022-10-24T14:19:36.186Z,25.21
2022-10-24T14:20:39.036Z,25.20
2022-10-24T14:21:43.412Z,25.21
2022-10-24T14:22:45.212Z,25.21
2022-10-24T14:23:58.360Z,25.21
2022-10-24T14:25:00.202Z,25.21
2022-10-24T14:26:08.688Z,25.14
2022-10-24T14:27:13.473Z,25.09
2022-10-24T14:28:17.371Z,25.01
2022-10-24T14:29:27.768Z,25.07
2022-10-24T14:30:34.271Z,25.08
2022-10-24T14:31:37.192Z,25.09
2022-10-24T14:32:39.362Z,25.01
2022-10-24T14:33:50.497Z,25.02
2022-10-24T14:34:55.556Z,24.95